Sprague, Canada
Current Conditions -  °F | °C
As of 5:34 AM on Saturday 20 Dec 2014 (Local Time) from KROX Reporting Station
Haze Haze  
Wind Chill: 23°   Ceiling: 500
Heat Index: 28°   Visibility: 2mi
Dew Point: 25°   Wind: 5mph
Humidity: 86%   Direction: 150°SSE
Pressure: 30.01"   Gusts: NA
Location:  49.03°N, 95.65°W
Report Text: KROX 201134Z AUTO 15004KT 2SM BR OVC005 M02/M04 A3001 RMK AO2
Loading
Personal Weather Stations






























Interactive Weather Map New forecast layout! Learn more

10-Day Weather Forecast

Advertisements
Track Severe Weather on mobile